sensor_id;sensor_type;location;lat;lon;timestamp;temperature;humidity
5930;DHT22;2990;48.746;9.236;2023-08-12T00:02:10;21.60;1.00
5930;DHT22;2990;48.746;9.236;2023-08-12T00:04:35;21.50;1.00
5930;DHT22;2990;48.746;9.236;2023-08-12T00:07:01;21.50;1.00
5930;DHT22;2990;48.746;9.236;2023-08-12T00:09:26;21.50;1.00
5930;DHT22;2990;48.746;9.236;2023-08-12T00:11:52;21.40;1.00
5930;DHT22;2990;48.746;9.236;2023-08-12T00:14:17;21.40;1.00
5930;DHT22;2990;48.746;9.236;2023-08-12T00:16:43;21.40;1.00
5930;DHT22;2990;48.746;9.236;2023-08-12T00:19:08;21.40;1.00
5930;DHT22;2990;48.746;9.236;2023-08-12T00:21:34;21.40;1.00
5930;DHT22;2990;48.746;9.236;2023-08-12T00:24:00;21.40;1.00
5930;DHT22;2990;48.746;9.236;2023-08-12T00:26:25;21.40;1.00
5930;DHT22;2990;48.746;9.236;2023-08-12T00:28:52;21.40;1.00
5930;DHT22;2990;48.746;9.236;2023-08-12T00:31:17;21.40;1.00
5930;DHT22;2990;48.746;9.236;2023-08-12T00:33:43;21.40;1.00
5930;DHT22;2990;48.746;9.236;2023-08-12T00:36:08;21.30;7.70
5930;DHT22;2990;48.746;9.236;2023-08-12T00:38:34;21.40;99.90
5930;DHT22;2990;48.746;9.236;2023-08-12T00:40:59;21.30;99.90
5930;DHT22;2990;48.746;9.236;2023-08-12T00:43:25;21.30;99.90
5930;DHT22;2990;48.746;9.236;2023-08-12T00:45:50;21.30;99.90
5930;DHT22;2990;48.746;9.236;2023-08-12T00:48:17;21.20;99.90
5930;DHT22;2990;48.746;9.236;2023-08-12T00:50:44;21.20;99.90
5930;DHT22;2990;48.746;9.236;2023-08-12T00:53:11;21.10;99.90
5930;DHT22;2990;48.746;9.236;2023-08-12T00:55:37;21.20;1.00
5930;DHT22;2990;48.746;9.236;2023-08-12T00:58:03;21.20;1.00
5930;DHT22;2990;48.746;9.236;2023-08-12T01:00:31;21.10;1.00
5930;DHT22;2990;48.746;9.236;2023-08-12T01:02:57;21.20;99.90
5930;DHT22;2990;48.746;9.236;2023-08-12T01:05:23;21.00;99.90
5930;DHT22;2990;48.746;9.236;2023-08-12T01:07:48;21.00;1.00
5930;DHT22;2990;48.746;9.236;2023-08-12T01:10:14;20.90;1.00
5930;DHT22;2990;48.746;9.236;2023-08-12T01:12:50;20.90;44.00
5930;DHT22;2990;48.746;9.236;2023-08-12T01:15:21;20.80;99.90
5930;DHT22;2990;48.746;9.236;2023-08-12T01:17:49;20.80;99.90
5930;DHT22;2990;48.746;9.236;2023-08-12T01:20:19;20.70;1.00
5930;DHT22;2990;48.746;9.236;2023-08-12T01:22:55;20.70;1.00
5930;DHT22;2990;48.746;9.236;2023-08-12T01:25:21;20.70;1.00
5930;DHT22;2990;48.746;9.236;2023-08-12T01:27:47;20.60;99.90
5930;DHT22;2990;48.746;9.236;2023-08-12T01:30:12;20.60;1.00
5930;DHT22;2990;48.746;9.236;2023-08-12T01:35:20;20.60;1.00
5930;DHT22;2990;48.746;9.236;2023-08-12T01:37:49;20.60;1.00
5930;DHT22;2990;48.746;9.236;2023-08-12T01:40:17;20.50;1.00
5930;DHT22;2990;48.746;9.236;2023-08-12T01:42:44;20.50;99.90
5930;DHT22;2990;48.746;9.236;2023-08-12T01:45:10;20.50;1.00
5930;DHT22;2990;48.746;9.236;2023-08-12T01:47:36;20.40;99.90
5930;DHT22;2990;48.746;9.236;2023-08-12T01:50:01;20.40;99.90
5930;DHT22;2990;48.746;9.236;2023-08-12T01:52:28;20.30;1.00
5930;DHT22;2990;48.746;9.236;2023-08-12T01:54:54;20.30;1.00
5930;DHT22;2990;48.746;9.236;2023-08-12T01:57:20;20.20;1.00
5930;DHT22;2990;48.746;9.236;2023-08-12T01:59:45;20.30;99.90
5930;DHT22;2990;48.746;9.236;2023-08-12T02:02:11;20.10;1.00
5930;DHT22;2990;48.746;9.236;2023-08-12T02:04:37;20.20;1.00
5930;DHT22;2990;48.746;9.236;2023-08-12T02:07:03;20.20;1.00
5930;DHT22;2990;48.746;9.236;2023-08-12T02:09:29;20.20;99.90
5930;DHT22;2990;48.746;9.236;2023-08-12T02:11:56;20.20;1.00
5930;DHT22;2990;48.746;9.236;2023-08-12T02:14:21;20.20;99.90
5930;DHT22;2990;48.746;9.236;2023-08-12T02:16:47;20.20;1.00
5930;DHT22;2990;48.746;9.236;2023-08-12T02:19:12;20.20;99.90
5930;DHT22;2990;48.746;9.236;2023-08-12T02:21:38;20.30;99.90
5930;DHT22;2990;48.746;9.236;2023-08-12T02:24:04;20.30;99.90
5930;DHT22;2990;48.746;9.236;2023-08-12T02:26:30;20.30;99.90
5930;DHT22;2990;48.746;9.236;2023-08-12T02:28:56;20.30;99.90
5930;DHT22;2990;48.746;9.236;2023-08-12T02:31:21;20.30;99.90
5930;DHT22;2990;48.746;9.236;2023-08-12T02:33:47;20.30;1.00
5930;DHT22;2990;48.746;9.236;2023-08-12T02:36:12;20.30;1.00
5930;DHT22;2990;48.746;9.236;2023-08-12T02:38:38;20.40;1.00
5930;DHT22;2990;48.746;9.236;2023-08-12T02:41:03;20.40;1.00
5930;DHT22;2990;48.746;9.236;2023-08-12T02:43:29;20.40;1.00
5930;DHT22;2990;48.746;9.236;2023-08-12T02:45:54;20.50;1.00
5930;DHT22;2990;48.746;9.236;2023-08-12T02:48:20;20.50;99.90
5930;DHT22;2990;48.746;9.236;2023-08-12T02:50:46;20.40;99.90
5930;DHT22;2990;48.746;9.236;2023-08-12T02:53:11;20.40;1.00
5930;DHT22;2990;48.746;9.236;2023-08-12T02:55:37;20.30;1.00
5930;DHT22;2990;48.746;9.236;2023-08-12T02:58:03;20.30;16.90
5930;DHT22;2990;48.746;9.236;2023-08-12T03:00:29;20.20;1.00
5930;DHT22;2990;48.746;9.236;2023-08-12T03:02:55;20.20;1.00
5930;DHT22;2990;48.746;9.236;2023-08-12T03:05:21;20.20;99.90
5930;DHT22;2990;48.746;9.236;2023-08-12T03:07:47;20.10;99.90
5930;DHT22;2990;48.746;9.236;2023-08-12T03:10:13;20.20;1.00
5930;DHT22;2990;48.746;9.236;2023-08-12T03:12:38;20.00;99.90
5930;DHT22;2990;48.746;9.236;2023-08-12T03:15:06;20.10;99.90
5930;DHT22;2990;48.746;9.236;2023-08-12T03:17:32;20.10;99.90
5930;DHT22;2990;48.746;9.236;2023-08-12T03:19:58;20.10;1.00
5930;DHT22;2990;48.746;9.236;2023-08-12T03:22:29;20.00;1.00
5930;DHT22;2990;48.746;9.236;2023-08-12T03:24:55;20.00;99.90
5930;DHT22;2990;48.746;9.236;2023-08-12T03:27:20;20.00;99.90
5930;DHT22;2990;48.746;9.236;2023-08-12T03:29:46;20.00;99.90
5930;DHT22;2990;48.746;9.236;2023-08-12T03:32:12;20.00;1.00
5930;DHT22;2990;48.746;9.236;2023-08-12T03:34:37;20.00;1.00
5930;DHT22;2990;48.746;9.236;2023-08-12T03:37:03;20.00;99.90
5930;DHT22;2990;48.746;9.236;2023-08-12T03:39:28;20.00;99.90
5930;DHT22;2990;48.746;9.236;2023-08-12T03:41:55;20.00;99.90
5930;DHT22;2990;48.746;9.236;2023-08-12T03:44:20;20.00;1.00
5930;DHT22;2990;48.746;9.236;2023-08-12T03:46:46;20.10;99.90
5930;DHT22;2990;48.746;9.236;2023-08-12T03:49:11;20.00;99.90
5930;DHT22;2990;48.746;9.236;2023-08-12T03:51:37;20.10;69.30
5930;DHT22;2990;48.746;9.236;2023-08-12T03:54:02;20.10;99.90
5930;DHT22;2990;48.746;9.236;2023-08-12T03:56:29;20.10;1.00
5930;DHT22;2990;48.746;9.236;2023-08-12T03:58:55;20.10;1.00
5930;DHT22;2990;48.746;9.236;2023-08-12T04:01:20;20.20;1.00
5930;DHT22;2990;48.746;9.236;2023-08-12T04:03:46;20.20;1.00
5930;DHT22;2990;48.746;9.236;2023-08-12T04:06:12;20.10;99.90
5930;DHT22;2990;48.746;9.236;2023-08-12T04:08:38;20.20;1.00
5930;DHT22;2990;48.746;9.236;2023-08-12T04:11:03;20.10;1.00
5930;DHT22;2990;48.746;9.236;2023-08-12T04:13:29;20.10;1.00
5930;DHT22;2990;48.746;9.236;2023-08-12T04:15:55;20.10;99.90
5930;DHT22;2990;48.746;9.236;2023-08-12T04:18:20;20.10;1.00
5930;DHT22;2990;48.746;9.236;2023-08-12T04:20:48;20.10;1.00
5930;DHT22;2990;48.746;9.236;2023-08-12T04:23:14;20.30;1.00
5930;DHT22;2990;48.746;9.236;2023-08-12T04:25:39;20.10;1.00
5930;DHT22;2990;48.746;9.236;2023-08-12T04:28:05;20.00;1.00
5930;DHT22;2990;48.746;9.236;2023-08-12T04:30:31;20.20;99.90
5930;DHT22;2990;48.746;9.236;2023-08-12T04:32:56;20.20;99.90
5930;DHT22;2990;48.746;9.236;2023-08-12T04:35:22;20.30;1.00
5930;DHT22;2990;48.746;9.236;2023-08-12T04:37:47;20.10;99.90
5930;DHT22;2990;48.746;9.236;2023-08-12T04:40:13;20.10;1.00
5930;DHT22;2990;48.746;9.236;2023-08-12T04:42:38;20.10;1.00
5930;DHT22;2990;48.746;9.236;2023-08-12T04:45:04;20.10;99.90
5930;DHT22;2990;48.746;9.236;2023-08-12T04:47:30;20.10;1.00
5930;DHT22;2990;48.746;9.236;2023-08-12T04:49:56;20.10;1.00
5930;DHT22;2990;48.746;9.236;2023-08-12T04:52:21;20.10;1.00
5930;DHT22;2990;48.746;9.236;2023-08-12T04:54:47;20.10;99.90
5930;DHT22;2990;48.746;9.236;2023-08-12T04:57:12;20.10;1.00
5930;DHT22;2990;48.746;9.236;2023-08-12T04:59:38;20.10;14.30
5930;DHT22;2990;48.746;9.236;2023-08-12T05:02:03;20.10;1.00
5930;DHT22;2990;48.746;9.236;2023-08-12T05:04:29;20.10;1.00
5930;DHT22;2990;48.746;9.236;2023-08-12T05:06:54;20.00;55.10
5930;DHT22;2990;48.746;9.236;2023-08-12T05:09:20;20.00;99.90
5930;DHT22;2990;48.746;9.236;2023-08-12T05:11:45;20.00;99.90
5930;DHT22;2990;48.746;9.236;2023-08-12T05:14:11;20.00;99.90
5930;DHT22;2990;48.746;9.236;2023-08-12T05:16:37;20.00;99.90
5930;DHT22;2990;48.746;9.236;2023-08-12T05:19:02;19.90;99.90
5930;DHT22;2990;48.746;9.236;2023-08-12T05:21:28;20.00;99.90
5930;DHT22;2990;48.746;9.236;2023-08-12T05:23:53;20.10;99.90
5930;DHT22;2990;48.746;9.236;2023-08-12T05:26:19;20.10;99.90
5930;DHT22;2990;48.746;9.236;2023-08-12T05:28:46;20.20;1.00
5930;DHT22;2990;48.746;9.236;2023-08-12T05:31:11;20.30;99.90
5930;DHT22;2990;48.746;9.236;2023-08-12T05:33:37;20.40;99.90
5930;DHT22;2990;48.746;9.236;2023-08-12T05:36:03;20.40;99.90
5930;DHT22;2990;48.746;9.236;2023-08-12T05:38:29;20.40;1.00
5930;DHT22;2990;48.746;9.236;2023-08-12T05:40:54;20.30;1.00
5930;DHT22;2990;48.746;9.236;2023-08-12T05:43:20;20.30;1.00
5930;DHT22;2990;48.746;9.236;2023-08-12T05:45:46;20.30;1.00
5930;DHT22;2990;48.746;9.236;2023-08-12T05:48:11;20.30;99.90
5930;DHT22;2990;48.746;9.236;2023-08-12T05:50:37;20.30;1.00
5930;DHT22;2990;48.746;9.236;2023-08-12T05:53:02;20.40;1.00
5930;DHT22;2990;48.746;9.236;2023-08-12T05:55:28;20.40;1.00
5930;DHT22;2990;48.746;9.236;2023-08-12T05:57:53;20.40;1.00
5930;DHT22;2990;48.746;9.236;2023-08-12T06:00:19;20.40;1.00
5930;DHT22;2990;48.746;9.236;2023-08-12T06:02:44;20.60;1.00
5930;DHT22;2990;48.746;9.236;2023-08-12T06:05:10;20.60;1.00
5930;DHT22;2990;48.746;9.236;2023-08-12T06:07:35;20.50;1.00
5930;DHT22;2990;48.746;9.236;2023-08-12T06:10:01;20.60;1.00
5930;DHT22;2990;48.746;9.236;2023-08-12T06:12:27;20.60;1.00
5930;DHT22;2990;48.746;9.236;2023-08-12T06:14:53;20.60;1.00
5930;DHT22;2990;48.746;9.236;2023-08-12T06:17:18;20.60;1.00
5930;DHT22;2990;48.746;9.236;2023-08-12T06:19:44;20.60;1.00
5930;DHT22;2990;48.746;9.236;2023-08-12T06:22:10;20.50;1.00
5930;DHT22;2990;48.746;9.236;2023-08-12T06:24:35;20.40;1.00
5930;DHT22;2990;48.746;9.236;2023-08-12T06:27:01;20.40;1.00
5930;DHT22;2990;48.746;9.236;2023-08-12T06:29:26;20.40;1.00
5930;DHT22;2990;48.746;9.236;2023-08-12T06:31:52;20.50;1.00
5930;DHT22;2990;48.746;9.236;2023-08-12T06:34:18;20.60;1.00
5930;DHT22;2990;48.746;9.236;2023-08-12T06:36:44;20.70;1.00
5930;DHT22;2990;48.746;9.236;2023-08-12T06:39:09;20.70;1.00
5930;DHT22;2990;48.746;9.236;2023-08-12T06:41:35;20.70;1.00
5930;DHT22;2990;48.746;9.236;2023-08-12T06:44:01;20.70;1.00
5930;DHT22;2990;48.746;9.236;2023-08-12T06:46:26;20.70;1.00
5930;DHT22;2990;48.746;9.236;2023-08-12T06:48:52;20.70;1.00
5930;DHT22;2990;48.746;9.236;2023-08-12T06:51:17;20.60;99.90
5930;DHT22;2990;48.746;9.236;2023-08-12T06:53:43;20.70;1.00
5930;DHT22;2990;48.746;9.236;2023-08-12T06:56:08;20.70;1.00
5930;DHT22;2990;48.746;9.236;2023-08-12T06:58:34;20.80;99.90
5930;DHT22;2990;48.746;9.236;2023-08-12T07:01:00;21.00;99.90
5930;DHT22;2990;48.746;9.236;2023-08-12T07:03:26;21.30;41.70
5930;DHT22;2990;48.746;9.236;2023-08-12T07:05:53;21.60;1.00
5930;DHT22;2990;48.746;9.236;2023-08-12T07:08:18;21.90;1.00
5930;DHT22;2990;48.746;9.236;2023-08-12T07:10:44;22.10;1.00
5930;DHT22;2990;48.746;9.236;2023-08-12T07:13:09;22.10;1.00
5930;DHT22;2990;48.746;9.236;2023-08-12T07:15:35;22.20;1.00
5930;DHT22;2990;48.746;9.236;2023-08-12T07:18:04;22.40;99.90
5930;DHT22;2990;48.746;9.236;2023-08-12T07:20:38;22.60;1.00
5930;DHT22;2990;48.746;9.236;2023-08-12T07:23:09;22.60;1.00
5930;DHT22;2990;48.746;9.236;2023-08-12T07:25:34;22.80;99.90
5930;DHT22;2990;48.746;9.236;2023-08-12T07:28:00;23.00;99.90
5930;DHT22;2990;48.746;9.236;2023-08-12T07:30:25;23.10;1.00
5930;DHT22;2990;48.746;9.236;2023-08-12T07:32:51;23.30;99.90
5930;DHT22;2990;48.746;9.236;2023-08-12T07:35:17;23.50;99.90
5930;DHT22;2990;48.746;9.236;2023-08-12T07:37:42;23.60;1.00
5930;DHT22;2990;48.746;9.236;2023-08-12T07:40:08;23.70;81.40
5930;DHT22;2990;48.746;9.236;2023-08-12T07:42:34;23.80;1.00
5930;DHT22;2990;48.746;9.236;2023-08-12T07:45:00;24.00;99.90
5930;DHT22;2990;48.746;9.236;2023-08-12T07:47:25;24.00;99.90
5930;DHT22;2990;48.746;9.236;2023-08-12T07:49:51;24.10;1.00
5930;DHT22;2990;48.746;9.236;2023-08-12T07:52:16;24.30;1.00
5930;DHT22;2990;48.746;9.236;2023-08-12T07:54:42;24.50;1.00
5930;DHT22;2990;48.746;9.236;2023-08-12T07:57:07;24.50;1.00
5930;DHT22;2990;48.746;9.236;2023-08-12T07:59:33;24.70;99.90
5930;DHT22;2990;48.746;9.236;2023-08-12T08:01:58;24.90;99.90
5930;DHT22;2990;48.746;9.236;2023-08-12T08:04:24;24.90;99.90
5930;DHT22;2990;48.746;9.236;2023-08-12T08:06:49;25.10;17.50
5930;DHT22;2990;48.746;9.236;2023-08-12T08:09:15;25.30;1.00
5930;DHT22;2990;48.746;9.236;2023-08-12T08:11:41;25.40;1.00
5930;DHT22;2990;48.746;9.236;2023-08-12T08:14:06;25.60;1.00
5930;DHT22;2990;48.746;9.236;2023-08-12T08:16:32;25.90;1.00
5930;DHT22;2990;48.746;9.236;2023-08-12T08:18:57;25.90;1.00
5930;DHT22;2990;48.746;9.236;2023-08-12T08:21:23;26.10;1.00
5930;DHT22;2990;48.746;9.236;2023-08-12T08:23:48;26.30;1.00
5930;DHT22;2990;48.746;9.236;2023-08-12T08:26:14;26.40;1.00
5930;DHT22;2990;48.746;9.236;2023-08-12T08:28:41;26.50;1.00
5930;DHT22;2990;48.746;9.236;2023-08-12T08:31:07;26.50;1.00
5930;DHT22;2990;48.746;9.236;2023-08-12T08:33:32;26.40;1.00
5930;DHT22;2990;48.746;9.236;2023-08-12T08:35:58;26.50;1.00
5930;DHT22;2990;48.746;9.236;2023-08-12T08:38:23;26.70;1.00
5930;DHT22;2990;48.746;9.236;2023-08-12T08:40:50;27.00;99.90
5930;DHT22;2990;48.746;9.236;2023-08-12T08:43:21;27.30;99.90
5930;DHT22;2990;48.746;9.236;2023-08-12T08:45:53;27.50;99.90
5930;DHT22;2990;48.746;9.236;2023-08-12T08:48:20;27.60;99.90
5930;DHT22;2990;48.746;9.236;2023-08-12T08:50:47;27.80;99.90
5930;DHT22;2990;48.746;9.236;2023-08-12T08:53:14;27.90;99.90
5930;DHT22;2990;48.746;9.236;2023-08-12T08:55:41;28.10;99.90
5930;DHT22;2990;48.746;9.236;2023-08-12T08:58:07;28.20;99.90
5930;DHT22;2990;48.746;9.236;2023-08-12T09:00:32;28.40;99.90
5930;DHT22;2990;48.746;9.236;2023-08-12T09:02:58;28.50;99.90
5930;DHT22;2990;48.746;9.236;2023-08-12T09:05:26;28.50;99.90
5930;DHT22;2990;48.746;9.236;2023-08-12T09:07:54;28.60;99.90
5930;DHT22;2990;48.746;9.236;2023-08-12T09:10:20;28.80;99.90
5930;DHT22;2990;48.746;9.236;2023-08-12T09:12:46;28.90;99.90
5930;DHT22;2990;48.746;9.236;2023-08-12T09:15:12;29.20;99.90
5930;DHT22;2990;48.746;9.236;2023-08-12T09:17:38;29.20;83.30
5930;DHT22;2990;48.746;9.236;2023-08-12T09:20:04;29.40;99.90
5930;DHT22;2990;48.746;9.236;2023-08-12T09:22:37;29.40;68.00
5930;DHT22;2990;48.746;9.236;2023-08-12T09:25:02;29.70;59.10
5930;DHT22;2990;48.746;9.236;2023-08-12T09:27:31;29.70;38.20
5930;DHT22;2990;48.746;9.236;2023-08-12T09:29:57;30.00;50.30
5930;DHT22;2990;48.746;9.236;2023-08-12T09:32:23;30.00;28.80
5930;DHT22;2990;48.746;9.236;2023-08-12T09:34:51;30.20;22.20
5930;DHT22;2990;48.746;9.236;2023-08-12T09:37:18;30.10;29.90
5930;DHT22;2990;48.746;9.236;2023-08-12T09:39:44;30.20;23.50
5930;DHT22;2990;48.746;9.236;2023-08-12T09:42:11;30.10;1.00
5930;DHT22;2990;48.746;9.236;2023-08-12T09:44:37;30.10;1.40
5930;DHT22;2990;48.746;9.236;2023-08-12T09:47:03;30.00;22.60
5930;DHT22;2990;48.746;9.236;2023-08-12T09:49:29;29.90;12.60
5930;DHT22;2990;48.746;9.236;2023-08-12T09:51:55;30.10;1.00
5930;DHT22;2990;48.746;9.236;2023-08-12T09:56:49;30.90;1.00
5930;DHT22;2990;48.746;9.236;2023-08-12T09:59:19;31.00;1.00
5930;DHT22;2990;48.746;9.236;2023-08-12T10:01:49;30.60;1.00
5930;DHT22;2990;48.746;9.236;2023-08-12T10:04:17;30.30;1.00
5930;DHT22;2990;48.746;9.236;2023-08-12T10:06:44;30.00;1.00
5930;DHT22;2990;48.746;9.236;2023-08-12T10:09:11;29.70;1.00
5930;DHT22;2990;48.746;9.236;2023-08-12T10:11:37;29.50;1.00
5930;DHT22;2990;48.746;9.236;2023-08-12T10:14:04;29.30;1.00
5930;DHT22;2990;48.746;9.236;2023-08-12T10:16:30;29.10;1.00
5930;DHT22;2990;48.746;9.236;2023-08-12T10:18:57;29.20;1.00
5930;DHT22;2990;48.746;9.236;2023-08-12T10:21:24;29.10;1.00
5930;DHT22;2990;48.746;9.236;2023-08-12T10:23:51;29.20;1.00
5930;DHT22;2990;48.746;9.236;2023-08-12T10:26:17;29.10;3.60
5930;DHT22;2990;48.746;9.236;2023-08-12T10:28:43;29.00;1.00
5930;DHT22;2990;48.746;9.236;2023-08-12T10:31:11;28.90;1.00
5930;DHT22;2990;48.746;9.236;2023-08-12T10:33:40;28.80;1.00
5930;DHT22;2990;48.746;9.236;2023-08-12T10:36:07;28.90;1.00
5930;DHT22;2990;48.746;9.236;2023-08-12T10:38:33;29.00;1.00
5930;DHT22;2990;48.746;9.236;2023-08-12T10:43:52;29.00;1.00
5930;DHT22;2990;48.746;9.236;2023-08-12T10:52:02;29.30;1.00
5930;DHT22;2990;48.746;9.236;2023-08-12T10:54:28;29.40;1.00
5930;DHT22;2990;48.746;9.236;2023-08-12T10:59:50;29.30;1.00
5930;DHT22;2990;48.746;9.236;2023-08-12T11:02:31;29.30;1.00
5930;DHT22;2990;48.746;9.236;2023-08-12T11:05:12;29.40;1.00
5930;DHT22;2990;48.746;9.236;2023-08-12T11:10:17;29.90;1.00
5930;DHT22;2990;48.746;9.236;2023-08-12T11:15:19;30.30;1.00
5930;DHT22;2990;48.746;9.236;2023-08-12T11:17:54;30.20;1.00
5930;DHT22;2990;48.746;9.236;2023-08-12T11:20:20;30.00;1.00
5930;DHT22;2990;48.746;9.236;2023-08-12T11:22:46;30.10;1.00
5930;DHT22;2990;48.746;9.236;2023-08-12T11:25:13;30.10;1.00
5930;DHT22;2990;48.746;9.236;2023-08-12T11:27:41;30.20;1.00
5930;DHT22;2990;48.746;9.236;2023-08-12T11:30:08;30.50;1.00
5930;DHT22;2990;48.746;9.236;2023-08-12T11:32:34;30.80;1.00
5930;DHT22;2990;48.746;9.236;2023-08-12T11:35:00;31.20;1.00
5930;DHT22;2990;48.746;9.236;2023-08-12T11:37:26;31.70;1.00
5930;DHT22;2990;48.746;9.236;2023-08-12T11:39:52;31.70;1.00
5930;DHT22;2990;48.746;9.236;2023-08-12T11:42:18;32.00;1.00
5930;DHT22;2990;48.746;9.236;2023-08-12T11:44:46;31.90;1.00
5930;DHT22;2990;48.746;9.236;2023-08-12T11:47:11;31.90;1.00
5930;DHT22;2990;48.746;9.236;2023-08-12T11:49:38;31.90;1.00
5930;DHT22;2990;48.746;9.236;2023-08-12T11:52:09;31.80;1.00
5930;DHT22;2990;48.746;9.236;2023-08-12T11:54:35;31.90;1.00
5930;DHT22;2990;48.746;9.236;2023-08-12T11:57:01;31.70;1.00
5930;DHT22;2990;48.746;9.236;2023-08-12T11:59:26;31.80;1.00
5930;DHT22;2990;48.746;9.236;2023-08-12T12:01:54;31.70;1.00
5930;DHT22;2990;48.746;9.236;2023-08-12T12:04:21;31.70;1.00
5930;DHT22;2990;48.746;9.236;2023-08-12T12:06:47;31.50;1.00
5930;DHT22;2990;48.746;9.236;2023-08-12T12:09:15;31.20;1.00
5930;DHT22;2990;48.746;9.236;2023-08-12T12:11:55;30.80;1.00
5930;DHT22;2990;48.746;9.236;2023-08-12T12:14:23;30.50;1.00
5930;DHT22;2990;48.746;9.236;2023-08-12T12:17:07;30.20;1.00
5930;DHT22;2990;48.746;9.236;2023-08-12T12:19:33;29.90;1.00
5930;DHT22;2990;48.746;9.236;2023-08-12T12:22:03;29.70;1.00
5930;DHT22;2990;48.746;9.236;2023-08-12T12:25:19;29.50;1.00
5930;DHT22;2990;48.746;9.236;2023-08-12T12:27:46;29.00;1.00
5930;DHT22;2990;48.746;9.236;2023-08-12T12:30:37;28.60;38.70
5930;DHT22;2990;48.746;9.236;2023-08-12T12:33:06;27.50;99.90
5930;DHT22;2990;48.746;9.236;2023-08-12T12:35:35;26.60;1.00
5930;DHT22;2990;48.746;9.236;2023-08-12T12:38:01;25.60;99.90
5930;DHT22;2990;48.746;9.236;2023-08-12T12:40:26;25.10;1.00
5930;DHT22;2990;48.746;9.236;2023-08-12T12:42:52;24.90;99.90
5930;DHT22;2990;48.746;9.236;2023-08-12T12:45:17;24.60;99.90
5930;DHT22;2990;48.746;9.236;2023-08-12T12:47:43;24.40;1.00
5930;DHT22;2990;48.746;9.236;2023-08-12T12:50:09;24.30;1.00
5930;DHT22;2990;48.746;9.236;2023-08-12T13:26:07;22.10;99.90
5930;DHT22;2990;48.746;9.236;2023-08-12T13:35:21;21.90;99.90
5930;DHT22;2990;48.746;9.236;2023-08-12T13:37:50;21.80;99.90
5930;DHT22;2990;48.746;9.236;2023-08-12T13:40:31;21.90;99.90
5930;DHT22;2990;48.746;9.236;2023-08-12T13:43:26;22.00;99.90
5930;DHT22;2990;48.746;9.236;2023-08-12T13:49:38;22.40;99.90
5930;DHT22;2990;48.746;9.236;2023-08-12T13:55:55;23.00;99.90
5930;DHT22;2990;48.746;9.236;2023-08-12T13:58:21;23.40;99.90
5930;DHT22;2990;48.746;9.236;2023-08-12T14:01:05;23.80;99.90
5930;DHT22;2990;48.746;9.236;2023-08-12T14:03:34;24.30;1.00
5930;DHT22;2990;48.746;9.236;2023-08-12T14:06:00;24.60;1.00
5930;DHT22;2990;48.746;9.236;2023-08-12T14:08:26;24.80;1.00
5930;DHT22;2990;48.746;9.236;2023-08-12T14:10:52;25.10;1.00
5930;DHT22;2990;48.746;9.236;2023-08-12T14:13:17;25.30;1.00
5930;DHT22;2990;48.746;9.236;2023-08-12T14:15:43;25.60;1.00
5930;DHT22;2990;48.746;9.236;2023-08-12T14:18:08;25.70;99.90
5930;DHT22;2990;48.746;9.236;2023-08-12T14:20:34;26.00;99.90
5930;DHT22;2990;48.746;9.236;2023-08-12T14:22:59;26.10;1.00
5930;DHT22;2990;48.746;9.236;2023-08-12T14:25:25;26.00;1.00
5930;DHT22;2990;48.746;9.236;2023-08-12T14:27:51;26.00;1.00
5930;DHT22;2990;48.746;9.236;2023-08-12T14:30:18;26.00;1.00
5930;DHT22;2990;48.746;9.236;2023-08-12T14:32:44;26.20;1.00
5930;DHT22;2990;48.746;9.236;2023-08-12T14:35:10;26.40;99.90
5930;DHT22;2990;48.746;9.236;2023-08-12T14:37:36;26.60;1.00
5930;DHT22;2990;48.746;9.236;2023-08-12T14:40:01;26.60;1.00
5930;DHT22;2990;48.746;9.236;2023-08-12T14:42:28;26.80;1.00
5930;DHT22;2990;48.746;9.236;2023-08-12T14:44:53;27.00;99.90
5930;DHT22;2990;48.746;9.236;2023-08-12T14:47:19;27.00;99.90
5930;DHT22;2990;48.746;9.236;2023-08-12T14:49:45;27.00;99.90
5930;DHT22;2990;48.746;9.236;2023-08-12T14:52:16;26.90;1.00
5930;DHT22;2990;48.746;9.236;2023-08-12T14:54:42;27.00;1.00
5930;DHT22;2990;48.746;9.236;2023-08-12T14:57:10;26.90;1.00
5930;DHT22;2990;48.746;9.236;2023-08-12T14:59:36;26.90;64.70
5930;DHT22;2990;48.746;9.236;2023-08-12T15:02:01;27.10;1.00
5930;DHT22;2990;48.746;9.236;2023-08-12T15:04:27;27.20;59.20
5930;DHT22;2990;48.746;9.236;2023-08-12T15:06:53;27.40;1.00
5930;DHT22;2990;48.746;9.236;2023-08-12T15:09:18;27.40;99.90
5930;DHT22;2990;48.746;9.236;2023-08-12T15:11:44;27.50;1.00
5930;DHT22;2990;48.746;9.236;2023-08-12T15:14:10;27.50;1.00
5930;DHT22;2990;48.746;9.236;2023-08-12T15:16:35;27.30;1.00
5930;DHT22;2990;48.746;9.236;2023-08-12T15:19:02;27.30;1.00
5930;DHT22;2990;48.746;9.236;2023-08-12T15:21:27;27.30;1.00
5930;DHT22;2990;48.746;9.236;2023-08-12T15:23:53;27.30;99.90
5930;DHT22;2990;48.746;9.236;2023-08-12T15:26:18;27.20;1.00
5930;DHT22;2990;48.746;9.236;2023-08-12T15:28:44;27.30;1.00
5930;DHT22;2990;48.746;9.236;2023-08-12T15:31:13;27.10;1.00
5930;DHT22;2990;48.746;9.236;2023-08-12T15:33:40;27.30;99.90
5930;DHT22;2990;48.746;9.236;2023-08-12T15:36:06;27.20;99.90
5930;DHT22;2990;48.746;9.236;2023-08-12T15:38:31;27.00;99.90
5930;DHT22;2990;48.746;9.236;2023-08-12T15:40:59;26.90;1.00
5930;DHT22;2990;48.746;9.236;2023-08-12T15:43:25;26.60;1.00
5930;DHT22;2990;48.746;9.236;2023-08-12T15:45:51;26.40;1.00
5930;DHT22;2990;48.746;9.236;2023-08-12T15:48:16;26.30;1.00
5930;DHT22;2990;48.746;9.236;2023-08-12T15:50:43;26.00;1.00
5930;DHT22;2990;48.746;9.236;2023-08-12T15:53:09;25.90;1.00
5930;DHT22;2990;48.746;9.236;2023-08-12T15:55:35;25.80;1.00
5930;DHT22;2990;48.746;9.236;2023-08-12T15:58:00;25.70;1.00
5930;DHT22;2990;48.746;9.236;2023-08-12T16:00:26;25.60;1.00
5930;DHT22;2990;48.746;9.236;2023-08-12T16:02:52;25.50;1.00
5930;DHT22;2990;48.746;9.236;2023-08-12T16:05:17;25.40;1.00
5930;DHT22;2990;48.746;9.236;2023-08-12T16:07:43;25.30;99.90
5930;DHT22;2990;48.746;9.236;2023-08-12T16:10:09;25.10;99.90
5930;DHT22;2990;48.746;9.236;2023-08-12T16:12:35;25.10;1.00
5930;DHT22;2990;48.746;9.236;2023-08-12T16:15:01;25.00;54.90
5930;DHT22;2990;48.746;9.236;2023-08-12T16:17:27;25.00;1.00
5930;DHT22;2990;48.746;9.236;2023-08-12T16:19:52;24.80;1.00
5930;DHT22;2990;48.746;9.236;2023-08-12T16:22:18;24.70;99.90
5930;DHT22;2990;48.746;9.236;2023-08-12T16:24:44;24.50;1.00
5930;DHT22;2990;48.746;9.236;2023-08-12T16:30:38;24.00;1.00
5930;DHT22;2990;48.746;9.236;2023-08-12T16:33:06;23.60;1.00
5930;DHT22;2990;48.746;9.236;2023-08-12T16:35:37;23.40;5.00
5930;DHT22;2990;48.746;9.236;2023-08-12T16:38:25;23.20;75.90
5930;DHT22;2990;48.746;9.236;2023-08-12T16:40:51;23.10;99.90
5930;DHT22;2990;48.746;9.236;2023-08-12T16:43:16;22.90;99.90
5930;DHT22;2990;48.746;9.236;2023-08-12T16:45:44;22.80;99.90
5930;DHT22;2990;48.746;9.236;2023-08-12T16:48:10;22.70;99.90
5930;DHT22;2990;48.746;9.236;2023-08-12T16:50:35;22.60;99.90
5930;DHT22;2990;48.746;9.236;2023-08-12T16:53:01;22.40;99.90
5930;DHT22;2990;48.746;9.236;2023-08-12T16:55:40;22.30;99.90
5930;DHT22;2990;48.746;9.236;2023-08-12T16:58:08;22.30;99.90
5930;DHT22;2990;48.746;9.236;2023-08-12T17:01:03;22.30;99.90
5930;DHT22;2990;48.746;9.236;2023-08-12T17:03:55;22.40;99.90
5930;DHT22;2990;48.746;9.236;2023-08-12T17:06:37;22.20;99.90
5930;DHT22;2990;48.746;9.236;2023-08-12T17:09:05;22.20;99.90
5930;DHT22;2990;48.746;9.236;2023-08-12T17:11:31;22.30;99.90
5930;DHT22;2990;48.746;9.236;2023-08-12T17:13:57;22.30;99.90
5930;DHT22;2990;48.746;9.236;2023-08-12T17:16:23;22.20;99.90
5930;DHT22;2990;48.746;9.236;2023-08-12T17:18:55;22.30;99.90
5930;DHT22;2990;48.746;9.236;2023-08-12T17:25:15;22.40;99.90
5930;DHT22;2990;48.746;9.236;2023-08-12T18:10:38;21.80;99.90